createdAt,value
2023-02-19T00:00:50.491Z,98718.91
2023-02-19T00:02:53.990Z,98715.56
2023-02-19T00:04:57.127Z,98712.78
2023-02-19T00:07:00.226Z,98715.41
2023-02-19T00:09:04.962Z,98713.63
2023-02-19T00:11:09.660Z,98715.31
2023-02-19T00:13:13.086Z,98714.28
2023-02-19T00:15:16.271Z,98711.78
2023-02-19T00:17:20.521Z,98704.03
2023-02-19T00:19:23.705Z,98704.03
2023-02-19T00:21:27.532Z,98710.00
2023-02-19T00:23:30.824Z,98705.59
2023-02-19T00:25:37.736Z,98709.91
2023-02-19T00:27:40.833Z,98711.50
2023-02-19T00:29:43.893Z,98705.34
2023-02-19T00:31:47.233Z,98706.19
2023-02-19T00:33:51.855Z,98713.75
2023-02-19T00:35:55.003Z,98710.47
2023-02-19T00:37:58.194Z,98714.66
2023-02-19T00:40:01.409Z,98714.75
2023-02-19T00:42:05.934Z,98712.06
2023-02-19T00:44:09.741Z,98716.34
2023-02-19T00:46:12.940Z,98716.34
2023-02-19T00:48:16.055Z,98706.75
2023-02-19T00:50:19.123Z,98708.41
2023-02-19T00:52:22.293Z,98708.63
2023-02-19T00:54:25.574Z,98710.28
2023-02-19T00:56:29.012Z,98708.41
2023-02-19T00:58:33.727Z,98706.75
2023-02-19T01:00:37.138Z,98701.53
2023-02-19T01:02:40.252Z,98704.13
2023-02-19T01:04:43.399Z,98696.31
2023-02-19T01:06:48.725Z,98693.53
2023-02-19T01:08:51.861Z,98688.28
2023-02-19T01:10:55.174Z,98689.88
2023-02-19T01:12:58.611Z,98684.72
2023-02-19T01:15:03.042Z,98675.16
2023-02-19T01:17:06.553Z,98671.59
2023-02-19T01:19:09.703Z,98664.63
2023-02-19T01:21:14.519Z,98658.25
2023-02-19T01:23:17.594Z,98655.09
2023-02-19T01:25:21.052Z,98662.00
2023-02-19T01:27:24.296Z,98663.75
2023-02-19T01:29:27.438Z,98664.53
2023-02-19T01:31:33.401Z,98663.75
2023-02-19T01:33:38.118Z,98664.63
2023-02-19T01:35:41.319Z,98667.06
2023-02-19T01:37:44.423Z,98656.81
2023-02-19T01:39:48.576Z,98655.09
2023-02-19T01:41:52.031Z,98655.94
2023-02-19T01:44:01.903Z,98655.09
2023-02-19T01:46:07.794Z,98652.50
2023-02-19T01:48:14.320Z,98655.09
2023-02-19T01:50:17.763Z,98650.72
2023-02-19T01:52:25.730Z,98649.69
2023-02-19T01:54:32.536Z,98651.47
2023-02-19T01:56:38.364Z,98634.13
2023-02-19T01:58:41.752Z,98642.78
2023-02-19T02:00:44.838Z,98642.88
2023-02-19T02:02:51.542Z,98643.84
2023-02-19T02:04:56.692Z,98640.38
2023-02-19T02:07:02.135Z,98646.53
2023-02-19T02:09:23.341Z,98649.88
2023-02-19T02:11:26.747Z,98641.31
2023-02-19T02:13:31.067Z,98641.22
2023-02-19T02:15:40.791Z,98642.34
2023-02-19T02:17:52.506Z,98634.59
2023-02-19T02:20:08.189Z,98634.41
2023-02-19T02:22:17.481Z,98636.09
2023-02-19T02:24:45.024Z,98634.41
2023-02-19T02:26:59.625Z,98628.28
2023-02-19T02:29:41.856Z,98635.16
2023-02-19T02:31:49.759Z,98629.94
2023-02-19T02:33:57.857Z,98625.66
2023-02-19T02:36:06.960Z,98622.28
2023-02-19T02:38:12.937Z,98622.88
2023-02-19T02:40:16.392Z,98617.84
2023-02-19T02:42:28.921Z,98614.38
2023-02-19T02:44:41.252Z,98611.03
2023-02-19T02:46:46.805Z,98613.00
2023-02-19T02:48:55.420Z,98614.69
2023-02-19T02:51:01.903Z,98615.69
2023-02-19T02:53:30.925Z,98616.53
2023-02-19T02:55:42.701Z,98615.59
2023-02-19T02:57:47.249Z,98613.72
2023-02-19T02:59:50.925Z,98615.59
2023-02-19T03:02:12.717Z,98615.78
2023-02-19T03:04:20.835Z,98610.56
2023-02-19T03:06:24.665Z,98613.09
2023-02-19T03:08:31.535Z,98616.53
2023-02-19T03:10:38.013Z,98613.09
2023-02-19T03:12:59.350Z,98610.47
2023-02-19T03:15:25.129Z,98608.69
2023-02-19T03:17:52.326Z,98617.47
2023-02-19T03:20:02.749Z,98604.34
2023-02-19T03:22:15.747Z,98606.09
2023-02-19T03:24:38.432Z,98602.66
2023-02-19T03:26:43.084Z,98599.94
2023-02-19T03:29:06.604Z,98596.59
2023-02-19T03:31:13.299Z,98607.03
2023-02-19T03:33:20.268Z,98602.56
2023-02-19T03:35:26.810Z,98593.41
2023-02-19T03:37:34.238Z,98602.19
2023-02-19T03:39:44.451Z,98604.91
2023-02-19T03:41:57.469Z,98593.97
2023-02-19T03:44:08.720Z,98607.97
2023-02-19T03:46:15.616Z,98607.19
2023-02-19T03:48:26.464Z,98598.63
2023-02-19T03:50:31.936Z,98608.72
2023-02-19T03:52:44.384Z,98610.44
2023-02-19T03:54:53.839Z,98610.53
2023-02-19T03:57:02.877Z,98606.38
2023-02-19T03:59:10.903Z,98612.59
2023-02-19T04:01:17.759Z,98613.63
2023-02-19T04:03:25.333Z,98622.28
2023-02-19T04:05:31.211Z,98617.91
2023-02-19T04:07:36.927Z,98626.59
2023-02-19T04:09:43.084Z,98629.38
2023-02-19T04:11:50.173Z,98627.50
2023-02-19T04:13:57.813Z,98629.28
2023-02-19T04:16:04.009Z,98634.59
2023-02-19T04:18:09.034Z,98636.44
2023-02-19T04:20:15.562Z,98626.09
2023-02-19T04:22:18.904Z,98628.59
2023-02-19T04:24:25.820Z,98637.28
2023-02-19T04:26:29.754Z,98640.91
2023-02-19T04:28:33.013Z,98638.22
2023-02-19T04:30:36.189Z,98644.16
2023-02-19T04:32:39.422Z,98645.28
2023-02-19T04:34:42.529Z,98648.72
2023-02-19T04:36:47.127Z,98656.66
2023-02-19T04:38:50.177Z,98652.25
2023-02-19T04:40:53.304Z,98654.88
2023-02-19T04:42:56.530Z,98648.91
2023-02-19T04:44:59.581Z,98652.25
2023-02-19T04:47:02.629Z,98644.06
2023-02-19T04:49:05.744Z,98643.41
2023-02-19T04:51:09.419Z,98652.22
2023-02-19T04:53:14.138Z,98654.09
2023-02-19T04:55:17.336Z,98653.91
2023-02-19T04:57:20.423Z,98641.16
2023-02-19T04:59:23.650Z,98641.50
2023-02-19T05:01:26.960Z,98651.25
2023-02-19T05:03:30.506Z,98657.59
2023-02-19T05:05:33.637Z,98655.16
2023-02-19T05:07:36.776Z,98655.97
2023-02-19T05:09:41.200Z,98662.22
2023-02-19T05:11:44.316Z,98659.63
2023-02-19T05:13:47.414Z,98660.81
2023-02-19T05:15:57.475Z,98658.84
2023-02-19T05:18:00.608Z,98663.41
2023-02-19T05:20:03.992Z,98661.88
2023-02-19T05:22:07.149Z,98648.94
2023-02-19T05:24:10.342Z,98655.59
2023-02-19T05:26:17.108Z,98657.53
2023-02-19T05:28:20.691Z,98653.47
2023-02-19T05:30:23.885Z,98646.75
2023-02-19T05:32:27.112Z,98655.34
2023-02-19T05:34:30.273Z,98649.63
2023-02-19T05:36:33.819Z,98664.59
2023-02-19T05:38:37.171Z,98666.94
2023-02-19T05:40:40.481Z,98671.31
2023-02-19T05:42:44.924Z,98671.47
2023-02-19T05:44:50.974Z,98669.63
2023-02-19T05:46:53.989Z,98669.53
2023-02-19T05:48:58.171Z,98664.97
2023-02-19T05:51:05.140Z,98669.44
2023-02-19T05:53:08.308Z,98671.13
2023-02-19T05:55:11.410Z,98672.88
2023-02-19T05:57:14.546Z,98672.13
2023-02-19T05:59:20.786Z,98675.56
2023-02-19T06:01:25.582Z,98674.00
2023-02-19T06:03:28.601Z,98674.00
2023-02-19T06:05:31.722Z,98671.31
2023-02-19T06:07:35.217Z,98677.34
2023-02-19T06:09:38.553Z,98670.44
2023-02-19T06:11:43.448Z,98683.38
2023-02-19T06:13:47.444Z,98686.09
2023-02-19T06:15:51.981Z,98696.50
2023-02-19T06:17:55.048Z,98696.31
2023-02-19T06:19:58.248Z,98692.81
2023-02-19T06:22:01.358Z,98697.28
2023-02-19T06:24:08.591Z,98691.97
2023-02-19T06:26:13.528Z,98701.53
2023-02-19T06:28:16.664Z,98685.16
2023-02-19T06:30:20.002Z,98681.25
2023-02-19T06:32:24.703Z,98702.75
2023-02-19T06:34:28.360Z,98699.31
2023-02-19T06:36:32.084Z,98697.09
2023-02-19T06:38:35.311Z,98704.06
2023-02-19T06:40:38.476Z,98705.75
2023-02-19T06:42:41.630Z,98711.22
2023-02-19T06:44:44.711Z,98711.13
2023-02-19T06:46:47.846Z,98722.22
2023-02-19T06:48:52.386Z,98722.22
2023-02-19T06:50:55.782Z,98740.44
2023-02-19T06:52:59.051Z,98739.53
2023-02-19T06:55:02.240Z,98734.19
2023-02-19T06:57:06.082Z,98738.56
2023-02-19T06:59:11.644Z,98747.53
2023-02-19T07:01:14.782Z,98746.84
2023-02-19T07:03:17.925Z,98738.00
2023-02-19T07:05:22.422Z,98742.13
2023-02-19T07:07:25.494Z,98741.22
2023-02-19T07:09:28.636Z,98748.13
2023-02-19T07:11:34.261Z,98753.94
2023-02-19T07:13:37.899Z,98757.22
2023-02-19T07:15:41.130Z,98765.88
2023-02-19T07:17:44.330Z,98765.88
2023-02-19T07:19:47.436Z,98770.06
2023-02-19T07:21:52.214Z,98763.09
2023-02-19T07:23:55.698Z,98761.34
2023-02-19T07:25:59.125Z,98761.00
2023-02-19T07:28:02.213Z,98759.22
2023-02-19T07:30:08.395Z,98749.72
2023-02-19T07:32:11.561Z,98752.41
2023-02-19T07:34:14.835Z,98761.75
2023-02-19T07:36:20.154Z,98763.53
2023-02-19T07:38:28.338Z,98745.38
2023-02-19T07:40:31.455Z,98752.66
2023-02-19T07:42:34.679Z,98748.97
2023-02-19T07:44:37.881Z,98761.66
2023-02-19T07:46:41.034Z,98757.28
2023-02-19T07:48:44.603Z,98753.66
2023-02-19T07:50:52.869Z,98756.03
2023-02-19T07:52:56.427Z,98758.63
2023-02-19T07:55:03.686Z,98771.56
2023-02-19T07:57:06.887Z,98776.00
2023-02-19T07:59:10.778Z,98788.78
2023-02-19T08:01:16.581Z,98792.25
2023-02-19T08:03:18.783Z,98780.72
2023-02-19T08:05:21.782Z,98785.00
2023-02-19T08:07:25.147Z,98792.56
2023-02-19T08:09:28.259Z,98795.84
2023-02-19T08:11:50.138Z,98790.28
2023-02-19T08:13:54.312Z,98787.66
2023-02-19T08:16:18.360Z,98789.72
2023-02-19T08:18:27.048Z,98796.44
2023-02-19T08:20:30.141Z,98792.31
2023-02-19T08:22:33.253Z,98798.97
2023-02-19T08:24:39.116Z,98800.53
2023-02-19T08:26:43.596Z,98801.88
2023-02-19T08:28:46.763Z,98810.38
2023-02-19T08:30:50.583Z,98810.44
2023-02-19T08:32:53.829Z,98812.72
2023-02-19T08:34:57.024Z,98813.19
2023-02-19T08:37:02.086Z,98817.66
2023-02-19T08:39:05.197Z,98803.34
2023-02-19T08:41:10.171Z,98817.97
2023-02-19T08:43:17.330Z,98822.34
2023-02-19T08:45:20.836Z,98826.84
2023-02-19T08:47:24.015Z,98814.63
2023-02-19T08:49:27.666Z,98836.22
2023-02-19T08:51:30.829Z,98834.41
2023-02-19T08:53:34.462Z,98843.22
2023-02-19T08:55:39.654Z,98844.06
2023-02-19T08:57:42.767Z,98850.88
2023-02-19T08:59:47.182Z,98845.41
2023-02-19T09:01:50.865Z,98834.06
2023-02-19T09:03:54.359Z,98850.44
2023-02-19T09:05:57.460Z,98851.03
2023-02-19T09:08:00.929Z,98860.53
2023-02-19T09:10:04.626Z,98864.63
2023-02-19T09:12:09.010Z,98864.47
2023-02-19T09:14:12.087Z,98857.50
2023-02-19T09:16:16.610Z,98877.34
2023-02-19T09:18:19.896Z,98872.09
2023-02-19T09:20:23.090Z,98872.78
2023-02-19T09:22:26.548Z,98874.38
2023-02-19T09:24:29.654Z,98867.31
2023-02-19T09:26:32.756Z,98878.66
2023-02-19T09:28:37.778Z,98873.09
2023-02-19T09:30:40.924Z,98876.81
2023-02-19T09:32:45.580Z,98884.06
2023-02-19T09:34:48.647Z,98891.72
2023-02-19T09:36:52.114Z,98878.66
2023-02-19T09:38:55.271Z,98882.03
2023-02-19T09:40:59.006Z,98889.75
2023-02-19T09:43:03.297Z,98899.84
2023-02-19T09:45:07.411Z,98897.25
2023-02-19T09:47:17.076Z,98899.78
2023-02-19T09:49:25.940Z,98894.53
2023-02-19T09:51:30.366Z,98906.50
2023-02-19T09:53:40.270Z,98913.34
2023-02-19T09:55:44.445Z,98915.47
2023-02-19T09:57:48.363Z,98918.84
2023-02-19T09:59:54.707Z,98913.81
2023-02-19T10:02:03.071Z,98923.41
2023-02-19T10:04:06.277Z,98925.75
2023-02-19T10:06:16.748Z,98920.34
2023-02-19T10:08:22.165Z,98924.63
2023-02-19T10:10:30.142Z,98921.38
2023-02-19T10:12:35.128Z,98917.81
2023-02-19T10:14:41.517Z,98918.69
2023-02-19T10:16:46.646Z,98918.69
2023-02-19T10:18:49.862Z,98922.03
2023-02-19T10:20:54.124Z,98926.25
2023-02-19T10:23:03.524Z,98926.84
2023-02-19T10:25:07.196Z,98926.84
2023-02-19T10:27:13.432Z,98940.72
2023-02-19T10:29:16.545Z,98942.25
2023-02-19T10:31:22.186Z,98944.84
2023-02-19T10:33:25.811Z,98931.88
2023-02-19T10:35:29.678Z,98938.22
2023-02-19T10:37:33.416Z,98942.66
2023-02-19T10:39:43.991Z,98937.44
2023-02-19T10:41:47.331Z,98941.78
2023-02-19T10:43:54.939Z,98936.53
2023-02-19T10:45:59.939Z,98937.44
2023-02-19T10:48:04.317Z,98940.00
2023-02-19T10:50:08.809Z,98936.47
2023-02-19T10:52:17.914Z,98947.56
2023-02-19T10:54:25.376Z,98942.81
2023-02-19T10:56:31.512Z,98945.75
2023-02-19T10:58:37.368Z,98934.34
2023-02-19T11:00:40.637Z,98945.44
2023-02-19T11:02:44.800Z,98937.50
2023-02-19T11:05:05.465Z,98937.25
2023-02-19T11:07:10.169Z,98943.16
2023-02-19T11:09:26.912Z,98946.03
2023-02-19T11:11:34.980Z,98944.84
2023-02-19T11:13:39.779Z,98939.34
2023-02-19T11:15:43.738Z,98938.97
2023-02-19T11:17:47.060Z,98938.66
2023-02-19T11:19:53.255Z,98933.63
2023-02-19T11:21:57.014Z,98942.13
2023-02-19T11:24:02.578Z,98950.72
2023-02-19T11:26:07.841Z,98953.97
2023-02-19T11:28:23.512Z,98953.88
2023-02-19T11:30:36.546Z,98962.09
2023-02-19T11:32:40.045Z,98952.97
2023-02-19T11:34:43.161Z,98953.06
2023-02-19T11:36:46.424Z,98961.91
2023-02-19T11:38:49.713Z,98979.19
2023-02-19T11:40:58.522Z,98966.13
2023-02-19T11:43:07.775Z,98969.94
2023-02-19T11:45:18.874Z,98969.94
2023-02-19T11:47:44.896Z,98975.25
2023-02-19T11:49:55.063Z,98972.38
2023-02-19T11:52:08.281Z,98980.03
2023-02-19T11:54:21.905Z,98979.75
2023-02-19T11:56:33.726Z,98973.59
2023-02-19T11:58:59.502Z,98970.03
2023-02-19T12:01:11.722Z,98973.69
2023-02-19T12:03:33.205Z,98973.97
2023-02-19T12:05:45.199Z,98976.03
2023-02-19T12:08:21.507Z,98973.22
2023-02-19T12:10:29.122Z,98965.41
2023-02-19T12:12:43.102Z,98957.63
2023-02-19T12:15:11.931Z,98965.31
2023-02-19T12:17:45.525Z,98964.34
2023-02-19T12:20:04.711Z,98951.91
2023-02-19T12:22:22.600Z,98964.25
2023-02-19T12:24:45.919Z,98956.31
2023-02-19T12:26:56.043Z,98970.13
2023-02-19T12:29:18.069Z,98971.63
2023-02-19T12:31:35.349Z,98962.50
2023-02-19T12:34:03.846Z,98975.47
2023-02-19T12:36:14.420Z,98971.09
2023-02-19T12:38:23.688Z,98973.78
2023-02-19T12:40:35.837Z,98966.22
2023-02-19T12:42:47.092Z,98966.88
2023-02-19T12:44:54.089Z,98951.94
2023-02-19T12:46:59.587Z,98962.03
2023-02-19T12:49:08.319Z,98948.88
2023-02-19T12:51:15.802Z,98949.78
2023-02-19T12:53:30.016Z,98952.03
2023-02-19T12:55:36.411Z,98947.00
2023-02-19T12:57:40.268Z,98950.53
2023-02-19T12:59:46.424Z,98960.34
2023-02-19T13:01:53.215Z,98949.44
2023-02-19T13:04:14.064Z,98946.41
2023-02-19T13:06:25.811Z,98945.31
2023-02-19T13:08:34.209Z,98936.03
2023-02-19T13:10:41.404Z,98935.56
2023-02-19T13:12:45.696Z,98940.91
2023-02-19T13:14:50.763Z,98935.66
2023-02-19T13:16:59.560Z,98947.88
2023-02-19T13:19:04.579Z,98950.66
2023-02-19T13:21:09.969Z,98942.75
2023-02-19T13:23:35.073Z,98947.78
2023-02-19T13:25:57.780Z,98952.56
2023-02-19T13:28:13.160Z,98955.94
2023-02-19T13:30:29.982Z,98950.72
2023-02-19T13:32:48.713Z,98950.34
2023-02-19T13:35:11.715Z,98953.44
2023-02-19T13:37:16.902Z,98953.97
2023-02-19T13:39:21.650Z,98961.53
2023-02-19T13:41:29.861Z,98958.94
2023-02-19T13:43:35.641Z,98950.72
2023-02-19T13:45:42.022Z,98948.84
2023-02-19T13:47:51.447Z,98942.41
2023-02-19T13:50:06.692Z,98941.19
2023-02-19T13:52:39.819Z,98959.88
2023-02-19T13:54:42.906Z,98954.16
2023-02-19T13:56:45.998Z,98940.72
2023-02-19T13:58:58.189Z,98946.03
2023-02-19T14:01:02.461Z,98942.47
2023-02-19T14:03:29.644Z,98931.72
2023-02-19T14:06:00.611Z,98935.09
2023-02-19T14:08:06.082Z,98923.78
2023-02-19T14:10:13.477Z,98918.72
2023-02-19T14:12:20.810Z,98922.78
2023-02-19T14:14:28.584Z,98926.31
2023-02-19T14:16:51.952Z,98926.59
2023-02-19T14:18:56.389Z,98943.81
2023-02-19T14:21:14.321Z,98936.13
2023-02-19T14:23:24.369Z,98942.50
2023-02-19T14:25:35.277Z,98943.44
2023-02-19T14:27:39.037Z,98944.19
2023-02-19T14:29:42.172Z,98956.97
2023-02-19T14:31:46.705Z,98961.38
2023-02-19T14:33:51.976Z,98965.75
2023-02-19T14:35:58.550Z,98953.63
2023-02-19T14:38:01.782Z,98958.00
2023-02-19T14:40:07.047Z,98963.22
2023-02-19T14:42:17.396Z,98964.09
2023-02-19T14:44:24.977Z,98972.13
2023-02-19T14:46:31.816Z,98964.09
2023-02-19T14:48:39.458Z,98970.78
2023-02-19T14:50:43.209Z,98973.13
2023-02-19T14:52:49.466Z,98961.19
2023-02-19T14:54:55.052Z,98960.06
2023-02-19T14:57:00.636Z,98965.84
2023-02-19T14:59:23.072Z,98967.72
2023-02-19T15:01:27.263Z,98965.94
2023-02-19T15:03:34.085Z,98969.31
2023-02-19T15:05:38.270Z,98965.13
2023-02-19T15:07:42.750Z,98979.19
2023-02-19T15:09:47.839Z,98977.50
2023-02-19T15:11:51.168Z,98984.53
2023-02-19T15:13:58.567Z,98977.88
2023-02-19T15:16:01.772Z,98986.09
2023-02-19T15:18:06.102Z,98976.75
2023-02-19T15:20:12.760Z,98981.13
2023-02-19T15:22:21.124Z,98982.25
2023-02-19T15:24:24.310Z,98977.31
2023-02-19T15:26:33.326Z,98981.56
2023-02-19T15:28:36.415Z,98985.97
2023-02-19T15:30:40.969Z,98983.28
2023-02-19T15:32:53.095Z,98987.66
2023-02-19T15:34:57.325Z,98980.66
2023-02-19T15:37:02.823Z,98967.59
2023-02-19T15:39:06.064Z,98975.69
2023-02-19T15:41:18.039Z,98984.47
2023-02-19T15:43:24.722Z,98988.94
2023-02-19T15:45:30.003Z,98978.41
2023-02-19T15:47:36.908Z,98988.94
2023-02-19T15:49:46.123Z,98984.53
2023-02-19T15:51:53.381Z,98985.50
2023-02-19T15:53:59.774Z,98992.47
2023-02-19T15:56:05.800Z,98993.53
2023-02-19T15:58:13.317Z,98984.94
2023-02-19T16:00:22.681Z,99000.63
2023-02-19T16:02:27.683Z,98998.09
2023-02-19T16:04:32.388Z,98994.72
2023-02-19T16:06:55.723Z,98994.13
2023-02-19T16:09:03.094Z,98994.13
2023-02-19T16:11:08.875Z,98993.47
2023-02-19T16:13:13.146Z,98996.28
2023-02-19T16:15:20.176Z,99001.50
2023-02-19T16:17:28.181Z,99006.72
2023-02-19T16:19:44.034Z,99005.94
2023-02-19T16:21:47.235Z,99011.25
2023-02-19T16:23:54.609Z,99020.97
2023-02-19T16:26:01.875Z,99013.19
2023-02-19T16:28:12.519Z,99018.50
2023-02-19T16:30:28.068Z,99016.72
2023-02-19T16:32:31.313Z,99018.59
2023-02-19T16:34:41.908Z,99015.13
2023-02-19T16:36:46.257Z,99015.97
2023-02-19T16:39:06.143Z,99010.84
2023-02-19T16:41:13.913Z,99009.91
2023-02-19T16:43:30.427Z,99003.09
2023-02-19T16:45:33.608Z,99009.13
2023-02-19T16:47:41.652Z,99007.47
2023-02-19T16:49:46.257Z,99003.09
2023-02-19T16:51:49.534Z,99001.38
2023-02-19T16:53:52.692Z,99011.91
2023-02-19T16:55:56.007Z,99010.09
2023-02-19T16:57:59.284Z,99015.41
2023-02-19T17:00:02.446Z,99011.19
2023-02-19T17:02:16.899Z,99018.28
2023-02-19T17:04:20.040Z,99023.31
2023-02-19T17:06:24.603Z,99021.63
2023-02-19T17:08:33.890Z,99025.94
2023-02-19T17:10:37.021Z,99025.16
2023-02-19T17:12:41.574Z,99029.63
2023-02-19T17:14:45.837Z,99028.03
2023-02-19T17:16:49.186Z,99037.63
2023-02-19T17:18:52.581Z,99047.25
2023-02-19T17:20:58.567Z,99050.69
2023-02-19T17:23:03.074Z,99049.78
2023-02-19T17:25:07.060Z,99053.13
2023-02-19T17:27:11.959Z,99059.09
2023-02-19T17:29:18.426Z,99055.66
2023-02-19T17:31:21.852Z,99060.06
2023-02-19T17:33:25.014Z,99058.19
2023-02-19T17:35:28.146Z,99059.38
2023-02-19T17:37:31.461Z,99058.69
2023-02-19T17:39:35.890Z,99071.00
2023-02-19T17:41:39.014Z,99074.03
2023-02-19T17:43:42.323Z,99068.81
2023-02-19T17:45:45.484Z,99073.03
2023-02-19T17:47:49.027Z,99084.31
2023-02-19T17:49:52.268Z,99098.13
2023-02-19T17:51:55.443Z,99093.75
2023-02-19T17:53:58.584Z,99100.81
2023-02-19T17:56:06.497Z,99105.88
2023-02-19T17:58:09.617Z,99114.66
2023-02-19T18:00:17.118Z,99109.44
2023-02-19T18:02:20.149Z,99105.88
2023-02-19T18:04:23.322Z,99125.84
2023-02-19T18:06:26.664Z,99128.47
2023-02-19T18:08:29.864Z,99122.41
2023-02-19T18:10:32.925Z,99126.69
2023-02-19T18:12:37.354Z,99130.91
2023-02-19T18:14:40.443Z,99133.59
2023-02-19T18:16:49.693Z,99133.59
2023-02-19T18:18:53.360Z,99131.06
2023-02-19T18:20:56.524Z,99141.59
2023-02-19T18:23:02.350Z,99146.66
2023-02-19T18:25:05.639Z,99146.97
2023-02-19T18:27:08.693Z,99147.97
2023-02-19T18:29:13.196Z,99151.47
2023-02-19T18:31:16.690Z,99146.31
2023-02-19T18:33:19.987Z,99147.22
2023-02-19T18:35:23.284Z,99146.56
2023-02-19T18:37:27.616Z,99136.94
2023-02-19T18:39:30.728Z,99138.81
2023-02-19T18:41:33.839Z,99150.16
2023-02-19T18:43:36.924Z,99148.63
2023-02-19T18:45:43.368Z,99149.50
2023-02-19T18:47:47.654Z,99150.66
2023-02-19T18:49:51.783Z,99149.13
2023-02-19T18:51:55.268Z,99155.22
2023-02-19T18:54:01.755Z,99155.22
2023-02-19T18:56:05.425Z,99154.34
2023-02-19T18:58:11.113Z,99152.59
2023-02-19T19:00:18.389Z,99152.69
2023-02-19T19:02:23.272Z,99157.91
2023-02-19T19:04:26.522Z,99156.19
2023-02-19T19:06:29.888Z,99157.97
2023-02-19T19:08:32.925Z,99174.38
2023-02-19T19:10:36.070Z,99166.41
2023-02-19T19:12:39.113Z,99158.66
2023-02-19T19:14:43.293Z,99164.78
2023-02-19T19:16:46.397Z,99171.69
2023-02-19T19:18:51.471Z,99179.59
2023-02-19T19:20:56.680Z,99191.75
2023-02-19T19:22:59.814Z,99186.44
2023-02-19T19:25:02.914Z,99191.66
2023-02-19T19:27:06.016Z,99190.81
2023-02-19T19:29:09.435Z,99182.97
2023-02-19T19:31:13.021Z,99184.66
2023-02-19T19:33:17.732Z,99191.59
2023-02-19T19:35:22.793Z,99193.19
2023-02-19T19:37:28.416Z,99194.94
2023-02-19T19:39:31.664Z,99196.81
2023-02-19T19:41:34.833Z,99191.50
2023-02-19T19:43:38.069Z,99195.88
2023-02-19T19:45:41.403Z,99194.03
2023-02-19T19:47:44.691Z,99190.56
2023-02-19T19:49:48.232Z,99197.25
2023-02-19T19:51:52.752Z,99202.53
2023-02-19T19:53:55.883Z,99207.16
2023-02-19T19:55:58.992Z,99204.56
2023-02-19T19:58:02.069Z,99216.00
2023-02-19T20:00:06.045Z,99202.88
2023-02-19T20:02:15.498Z,99202.88
2023-02-19T20:04:18.746Z,99196.81
2023-02-19T20:06:26.777Z,99197.63
2023-02-19T20:08:31.267Z,99195.94
2023-02-19T20:10:34.451Z,99193.41
2023-02-19T20:12:37.580Z,99198.72
2023-02-19T20:14:40.694Z,99188.34
2023-02-19T20:16:44.826Z,99191.81
2023-02-19T20:18:48.031Z,99189.28
2023-02-19T20:20:51.117Z,99189.38
2023-02-19T20:22:54.750Z,99192.91
2023-02-19T20:24:59.333Z,99196.97
2023-02-19T20:27:03.001Z,99189.53
2023-02-19T20:29:07.137Z,99200.06
2023-02-19T20:31:10.684Z,99203.50
2023-02-19T20:33:13.966Z,99220.09
2023-02-19T20:35:17.677Z,99207.38
2023-02-19T20:37:23.723Z,99204.84
2023-02-19T20:39:29.198Z,99208.19
2023-02-19T20:41:33.645Z,99213.56
2023-02-19T20:43:36.668Z,99203.44
2023-02-19T20:45:41.060Z,99200.16
2023-02-19T20:47:44.180Z,99193.16
2023-02-19T20:49:47.288Z,99189.81
2023-02-19T20:51:51.960Z,99194.47
2023-02-19T20:53:55.065Z,99199.00
2023-02-19T20:55:58.277Z,99207.81
2023-02-19T20:58:02.745Z,99207.91
2023-02-19T21:00:07.313Z,99206.91
2023-02-19T21:02:15.704Z,99211.38
2023-02-19T21:04:19.325Z,99213.91
2023-02-19T21:06:22.598Z,99218.25
2023-02-19T21:08:25.692Z,99212.06
2023-02-19T21:10:28.722Z,99210.28
2023-02-19T21:12:32.715Z,99205.22
2023-02-19T21:14:37.097Z,99207.97
2023-02-19T21:16:40.236Z,99206.31
2023-02-19T21:18:43.675Z,99203.53
2023-02-19T21:20:46.631Z,99210.44
2023-02-19T21:22:49.673Z,99213.91
2023-02-19T21:24:53.560Z,99209.53
2023-02-19T21:26:56.410Z,99214.81
2023-02-19T21:28:59.341Z,99212.22
2023-02-19T21:31:03.653Z,99220.03
2023-02-19T21:33:06.659Z,99219.19
2023-02-19T21:35:10.394Z,99216.66
2023-02-19T21:37:13.474Z,99207.06
2023-02-19T21:39:19.136Z,99213.97
2023-02-19T21:41:22.404Z,99210.50
2023-02-19T21:43:25.478Z,99214.88
2023-02-19T21:45:28.658Z,99206.22
2023-02-19T21:47:33.180Z,99204.47
2023-02-19T21:49:36.254Z,99209.75
2023-02-19T21:51:40.636Z,99210.78
2023-02-19T21:53:44.020Z,99205.56
2023-02-19T21:55:57.986Z,99203.69
2023-02-19T21:58:01.829Z,99207.16
2023-02-19T22:00:06.494Z,99203.53
2023-02-19T22:02:10.416Z,99212.28
2023-02-19T22:04:17.721Z,99203.53
2023-02-19T22:06:22.537Z,99207.06
2023-02-19T22:08:25.603Z,99205.28
2023-02-19T22:10:28.652Z,99208.75
2023-02-19T22:12:31.760Z,99212.28
2023-02-19T22:14:34.869Z,99213.97
2023-02-19T22:16:38.092Z,99217.41
2023-02-19T22:18:47.303Z,99216.59
2023-02-19T22:20:51.683Z,99220.03
2023-02-19T22:22:54.903Z,99226.06
2023-02-19T22:24:58.209Z,99225.25
2023-02-19T22:27:01.290Z,99224.41
2023-02-19T22:29:07.260Z,99233.00
2023-02-19T22:31:10.573Z,99228.63
2023-02-19T22:33:13.646Z,99231.16
2023-02-19T22:35:16.920Z,99231.16
2023-02-19T22:37:21.321Z,99236.28
2023-02-19T22:39:25.937Z,99236.22
2023-02-19T22:41:29.245Z,99239.75
2023-02-19T22:43:32.336Z,99230.16
2023-02-19T22:45:35.459Z,99235.38
2023-02-19T22:47:39.977Z,99236.34
2023-02-19T22:49:43.942Z,99231.16
2023-02-19T22:51:51.791Z,99229.31
2023-02-19T22:53:57.816Z,99227.63
2023-02-19T22:56:00.903Z,99222.34
2023-02-19T22:58:03.959Z,99228.47
2023-02-19T23:00:08.700Z,99239.91
2023-02-19T23:02:11.802Z,99244.09
2023-02-19T23:04:14.994Z,99240.66
2023-02-19T23:06:22.218Z,99251.94
2023-02-19T23:08:25.322Z,99241.56
2023-02-19T23:10:29.745Z,99244.25
2023-02-19T23:12:32.868Z,99245.06
2023-02-19T23:14:36.410Z,99242.44
2023-02-19T23:16:39.466Z,99243.28
2023-02-19T23:18:42.531Z,99245.81
2023-02-19T23:20:45.741Z,99249.25
2023-02-19T23:22:48.805Z,99251.03
2023-02-19T23:24:51.948Z,99248.50
2023-02-19T23:26:56.468Z,99244.09
2023-02-19T23:28:59.637Z,99248.50
2023-02-19T23:31:02.825Z,99241.44
2023-02-19T23:33:05.863Z,99246.78
2023-02-19T23:35:09.242Z,99239.84
2023-02-19T23:37:12.272Z,99248.66
2023-02-19T23:39:18.176Z,99244.25
2023-02-19T23:41:21.295Z,99243.59
2023-02-19T23:43:25.828Z,99250.50
2023-02-19T23:45:29.627Z,99250.41
2023-02-19T23:47:32.671Z,99253.19
2023-02-19T23:49:35.775Z,99246.25
2023-02-19T23:51:38.849Z,99246.34
2023-02-19T23:53:42.068Z,99248.94
2023-02-19T23:55:45.177Z,99246.34
2023-02-19T23:57:48.224Z,99238.50
2023-02-19T23:59:52.953Z,99240.38
